Portada
METAR-TAF:

METAR-TAF

Aeropuertos :

Aeropuerto de Sevilla

Sevilla, España

latitud: 37-25N, longitud: 005-54W, altitud: 34 m

Observación

El informe se hizo hace 39 minutos, a las 20:00 UTC
Viento 4 kt del oeste-noroeste, variando entre oeste y noroeste
Temperatura 22°C
Humedad 57%
Presión 1018 hPa
Visibilidad 10 km o más
sin nubes por debajo de 1500 m y sin presencia de cumulonimbus.

METAR: LEZL 082000Z AUTO 29004KT 260V320 CAVOK 22/13 Q1018

Hora: 22:39 (20:39 UTC)

Pronóstico

El informe se hizo hace 39 minutos, a las 20:00 UTC
Pronóstico válido del 08 a las 21 UTC al 09 a las 21 UTC
Viento 3 kt con dirección variable
Visibilidad 10 km o más
Escasas nubes a una altura de 3000 ft
Nubes dispersas a una altura de 4500 ft
Probabilidad 30% :
Temporalmente
del 09 a las 13 UTC al 09 a las 18 UTC
Visibilidad: 4000 m
lluvia ligera

TAF: LEZL 082000Z 0821/0921 VRB03KT 9999 FEW030 SCT045 TX20/0915Z TN14/0906Z PROB30 TEMPO 0913/0918 4000 -RA

Observaciones y pronósticos meteorológicos de más de 4000 aeropuertos (mensajes METAR y TAF).

Los puntos amarillos y rojos representan las estaciones disponibles.

Ponga el ratón en el punto deseado para ver el nombre de la estación.

Haga clic para ver las observaciones y los pronósticos meteorológicos.

Para cambiar el mapa : haga clic en los botones verdes con una cruz de color negro para hacer un zoom, en el botón verde con un guión para alejar o en las flechas verdes para mapas adyacentes.


METAR-TAF: